Airfield :
LOGIN :

Register | Disclaimer

   EN    FR    IT 

 










Legend :    VFR   Marginal VFR   IFR   Intensive IFR   Very Intensive IFR
Visi :
Ceiling :
>= 8 km
>= 3000ft
5 to 8 km
1000 to 3000 ft
1500m to 5 km
500 to 1000 ft
800 to 1500m
200 to 500 ft
< 800m
< 200 ft
Symbols :   Thunderstorms  Fog  Heavy snow  Heavy precipitations  Wind > 20 kt
SIGMETs :     Misc.  Thunderstorms  Icing  Turbulence  Mountain Waves  Volcanic Ashes






- Airport Elevation : 23 ft
- IATA code : XFW


EDHI - Hamburg Finkenwerder

CURRENT METAR :
  • 211520Z 05015KT 9999 FEW036 22/14 Q1009

EXPIRED METARs :
  • 211450Z 06012KT 9999 FEW035 23/15 Q1009
  • 211420Z 05015KT 9999 FEW036 23/15 Q1009
  • 211350Z 06014KT 9999 FEW038 24/15 Q1010
  • 211320Z 08011G21KT 050V130 9999 FEW039 24/13 Q1010
  • 211250Z 07014KT 050V110 9999 FEW042 23/13 Q1010
  • 211220Z 09010KT 060V170 9999 FEW040 24/14 Q1011
  • 211150Z 08012KT 060V140 9999 FEW034 23/13 Q1011
  • 211120Z 08013KT 050V130 9999 FEW030 22/13 Q1011
  • 211050Z 08013KT 050V110 9999 FEW021 21/14 Q1011

TAF TAF EDHI
Valid from the 21 at 15:00 until the 21 at 21:00 UTC


211400Z 2115/2121 07012KT 9999 FEW035
PROB30
TEMPO 2115/2118 06015G25KT



MET'MAP, your aeronautical weather chart ! - Copyright ORBIFLY December 2007 - Disclaimer

ORBIFLY MET'MAP TEAM :

Programming & Development : Alexandra Zaïnal
Original concept : Baudouin d'Aumeries
Technical & hardware support : Manuel Goepfert
Assistance : Marc-Olivier Méhu




SOURCES & CREDITS :

   NOAA